sensor_id;sensor_type;location;lat;lon;timestamp;P1;durP1;ratioP1;P2;durP2;ratioP2
11427;SDS011;5770;44.504;11.346;2023-02-24T00:01:14;58.35;;;41.00;;
11427;SDS011;5770;44.504;11.346;2023-02-24T00:03:49;57.90;;;42.13;;
11427;SDS011;5770;44.504;11.346;2023-02-24T00:06:16;55.53;;;40.67;;
11427;SDS011;5770;44.504;11.346;2023-02-24T00:08:45;55.63;;;39.47;;
11427;SDS011;5770;44.504;11.346;2023-02-24T00:11:13;55.58;;;39.45;;
11427;SDS011;5770;44.504;11.346;2023-02-24T00:13:41;55.80;;;39.75;;
11427;SDS011;5770;44.504;11.346;2023-02-24T00:16:10;55.40;;;39.83;;
11427;SDS011;5770;44.504;11.346;2023-02-24T00:18:38;53.78;;;39.25;;
11427;SDS011;5770;44.504;11.346;2023-02-24T00:21:06;53.35;;;39.63;;
11427;SDS011;5770;44.504;11.346;2023-02-24T00:23:35;52.90;;;38.10;;
11427;SDS011;5770;44.504;11.346;2023-02-24T00:26:04;52.33;;;38.13;;
11427;SDS011;5770;44.504;11.346;2023-02-24T00:28:31;56.55;;;40.97;;
11427;SDS011;5770;44.504;11.346;2023-02-24T00:31:01;55.20;;;40.50;;
11427;SDS011;5770;44.504;11.346;2023-02-24T00:33:29;59.08;;;40.58;;
11427;SDS011;5770;44.504;11.346;2023-02-24T00:36:03;56.72;;;40.05;;
11427;SDS011;5770;44.504;11.346;2023-02-24T00:38:34;54.05;;;39.10;;
11427;SDS011;5770;44.504;11.346;2023-02-24T00:41:07;53.97;;;38.50;;
11427;SDS011;5770;44.504;11.346;2023-02-24T00:43:38;49.63;;;38.40;;
11427;SDS011;5770;44.504;11.346;2023-02-24T00:46:10;53.00;;;38.47;;
11427;SDS011;5770;44.504;11.346;2023-02-24T00:48:38;51.50;;;39.55;;
11427;SDS011;5770;44.504;11.346;2023-02-24T00:51:06;49.20;;;37.58;;
11427;SDS011;5770;44.504;11.346;2023-02-24T00:53:34;56.55;;;39.42;;
11427;SDS011;5770;44.504;11.346;2023-02-24T00:56:02;53.15;;;39.08;;
11427;SDS011;5770;44.504;11.346;2023-02-24T00:58:32;51.08;;;39.05;;
11427;SDS011;5770;44.504;11.346;2023-02-24T01:01:00;51.53;;;37.80;;
11427;SDS011;5770;44.504;11.346;2023-02-24T01:03:29;52.15;;;38.75;;
11427;SDS011;5770;44.504;11.346;2023-02-24T01:05:59;61.10;;;38.85;;
11427;SDS011;5770;44.504;11.346;2023-02-24T01:08:27;55.15;;;39.40;;
11427;SDS011;5770;44.504;11.346;2023-02-24T01:10:55;56.67;;;37.22;;
11427;SDS011;5770;44.504;11.346;2023-02-24T01:13:38;57.50;;;40.08;;
11427;SDS011;5770;44.504;11.346;2023-02-24T01:16:05;52.78;;;38.63;;
11427;SDS011;5770;44.504;11.346;2023-02-24T01:18:32;53.42;;;39.67;;
11427;SDS011;5770;44.504;11.346;2023-02-24T01:21:00;56.55;;;38.80;;
11427;SDS011;5770;44.504;11.346;2023-02-24T01:23:28;49.83;;;38.25;;
11427;SDS011;5770;44.504;11.346;2023-02-24T01:25:55;54.85;;;38.78;;
11427;SDS011;5770;44.504;11.346;2023-02-24T01:28:24;55.20;;;38.58;;
11427;SDS011;5770;44.504;11.346;2023-02-24T01:30:53;50.47;;;38.70;;
11427;SDS011;5770;44.504;11.346;2023-02-24T01:33:20;56.03;;;39.17;;
11427;SDS011;5770;44.504;11.346;2023-02-24T01:35:47;51.53;;;38.80;;
11427;SDS011;5770;44.504;11.346;2023-02-24T01:38:14;52.15;;;38.78;;
11427;SDS011;5770;44.504;11.346;2023-02-24T01:40:53;55.47;;;39.05;;
11427;SDS011;5770;44.504;11.346;2023-02-24T01:43:21;51.53;;;38.42;;
11427;SDS011;5770;44.504;11.346;2023-02-24T01:45:49;51.45;;;37.95;;
11427;SDS011;5770;44.504;11.346;2023-02-24T01:48:18;52.55;;;38.58;;
11427;SDS011;5770;44.504;11.346;2023-02-24T01:50:46;55.03;;;39.10;;
11427;SDS011;5770;44.504;11.346;2023-02-24T01:53:14;53.67;;;37.15;;
11427;SDS011;5770;44.504;11.346;2023-02-24T01:55:42;48.97;;;38.10;;
11427;SDS011;5770;44.504;11.346;2023-02-24T01:58:14;57.17;;;40.38;;
11427;SDS011;5770;44.504;11.346;2023-02-24T02:00:46;50.90;;;37.58;;
11427;SDS011;5770;44.504;11.346;2023-02-24T02:03:20;53.30;;;38.70;;
11427;SDS011;5770;44.504;11.346;2023-02-24T02:05:55;53.20;;;39.00;;
11427;SDS011;5770;44.504;11.346;2023-02-24T02:08:29;58.95;;;38.03;;
11427;SDS011;5770;44.504;11.346;2023-02-24T02:10:57;55.90;;;38.80;;
11427;SDS011;5770;44.504;11.346;2023-02-24T02:13:30;51.55;;;38.45;;
11427;SDS011;5770;44.504;11.346;2023-02-24T02:16:21;55.58;;;36.25;;
11427;SDS011;5770;44.504;11.346;2023-02-24T02:19:17;52.00;;;38.65;;
11427;SDS011;5770;44.504;11.346;2023-02-24T02:22:03;51.42;;;37.58;;
11427;SDS011;5770;44.504;11.346;2023-02-24T02:24:36;59.05;;;39.88;;
11427;SDS011;5770;44.504;11.346;2023-02-24T02:27:24;51.10;;;37.50;;
11427;SDS011;5770;44.504;11.346;2023-02-24T02:30:09;48.25;;;37.47;;
11427;SDS011;5770;44.504;11.346;2023-02-24T02:32:44;46.60;;;36.13;;
11427;SDS011;5770;44.504;11.346;2023-02-24T02:35:33;49.92;;;37.63;;
11427;SDS011;5770;44.504;11.346;2023-02-24T02:38:06;47.67;;;37.08;;
11427;SDS011;5770;44.504;11.346;2023-02-24T02:40:40;51.00;;;36.97;;
11427;SDS011;5770;44.504;11.346;2023-02-24T02:43:11;50.55;;;36.90;;
11427;SDS011;5770;44.504;11.346;2023-02-24T02:45:44;48.47;;;35.65;;
11427;SDS011;5770;44.504;11.346;2023-02-24T02:48:13;56.08;;;37.28;;
11427;SDS011;5770;44.504;11.346;2023-02-24T02:50:46;48.22;;;36.60;;
11427;SDS011;5770;44.504;11.346;2023-02-24T02:53:18;49.58;;;35.47;;
11427;SDS011;5770;44.504;11.346;2023-02-24T02:55:49;52.17;;;38.80;;
11427;SDS011;5770;44.504;11.346;2023-02-24T02:58:23;49.78;;;37.53;;
11427;SDS011;5770;44.504;11.346;2023-02-24T03:00:52;49.40;;;37.33;;
11427;SDS011;5770;44.504;11.346;2023-02-24T03:03:26;47.65;;;37.22;;
11427;SDS011;5770;44.504;11.346;2023-02-24T03:05:59;52.10;;;37.70;;
11427;SDS011;5770;44.504;11.346;2023-02-24T03:08:28;48.22;;;36.17;;
11427;SDS011;5770;44.504;11.346;2023-02-24T03:10:59;54.00;;;36.38;;
11427;SDS011;5770;44.504;11.346;2023-02-24T03:13:30;46.85;;;35.50;;
11427;SDS011;5770;44.504;11.346;2023-02-24T03:16:00;49.90;;;36.90;;
11427;SDS011;5770;44.504;11.346;2023-02-24T03:18:31;49.83;;;36.75;;
11427;SDS011;5770;44.504;11.346;2023-02-24T03:21:02;51.40;;;36.72;;
11427;SDS011;5770;44.504;11.346;2023-02-24T03:23:33;51.97;;;36.47;;
11427;SDS011;5770;44.504;11.346;2023-02-24T03:26:04;50.15;;;36.50;;
11427;SDS011;5770;44.504;11.346;2023-02-24T03:28:43;54.85;;;35.38;;
11427;SDS011;5770;44.504;11.346;2023-02-24T03:31:15;51.70;;;34.50;;
11427;SDS011;5770;44.504;11.346;2023-02-24T03:33:47;54.28;;;35.67;;
11427;SDS011;5770;44.504;11.346;2023-02-24T03:36:22;51.75;;;35.65;;
11427;SDS011;5770;44.504;11.346;2023-02-24T03:38:49;47.50;;;35.70;;
11427;SDS011;5770;44.504;11.346;2023-02-24T03:41:16;49.65;;;35.25;;
11427;SDS011;5770;44.504;11.346;2023-02-24T03:43:45;50.38;;;36.17;;
11427;SDS011;5770;44.504;11.346;2023-02-24T03:46:14;51.03;;;35.45;;
11427;SDS011;5770;44.504;11.346;2023-02-24T03:48:43;50.42;;;35.17;;
11427;SDS011;5770;44.504;11.346;2023-02-24T03:51:13;45.10;;;35.08;;
11427;SDS011;5770;44.504;11.346;2023-02-24T03:53:46;49.88;;;35.25;;
11427;SDS011;5770;44.504;11.346;2023-02-24T03:56:21;45.85;;;34.92;;
11427;SDS011;5770;44.504;11.346;2023-02-24T03:58:55;45.08;;;34.47;;
11427;SDS011;5770;44.504;11.346;2023-02-24T04:01:39;47.97;;;34.28;;
11427;SDS011;5770;44.504;11.346;2023-02-24T04:04:10;52.10;;;35.75;;
11427;SDS011;5770;44.504;11.346;2023-02-24T04:06:43;40.38;;;31.60;;
11427;SDS011;5770;44.504;11.346;2023-02-24T04:09:17;46.33;;;33.83;;
11427;SDS011;5770;44.504;11.346;2023-02-24T04:11:51;49.28;;;35.10;;
11427;SDS011;5770;44.504;11.346;2023-02-24T04:14:26;56.30;;;34.00;;
11427;SDS011;5770;44.504;11.346;2023-02-24T04:16:54;44.85;;;33.17;;
11427;SDS011;5770;44.504;11.346;2023-02-24T04:19:25;44.88;;;33.00;;
11427;SDS011;5770;44.504;11.346;2023-02-24T04:21:55;45.03;;;33.58;;
11427;SDS011;5770;44.504;11.346;2023-02-24T04:24:26;49.42;;;33.28;;
11427;SDS011;5770;44.504;11.346;2023-02-24T04:26:55;51.88;;;33.83;;
11427;SDS011;5770;44.504;11.346;2023-02-24T04:29:25;43.50;;;32.33;;
11427;SDS011;5770;44.504;11.346;2023-02-24T04:32:00;43.47;;;32.15;;
11427;SDS011;5770;44.504;11.346;2023-02-24T04:34:31;47.53;;;33.17;;
11427;SDS011;5770;44.504;11.346;2023-02-24T04:36:58;41.40;;;31.23;;
11427;SDS011;5770;44.504;11.346;2023-02-24T04:39:27;45.55;;;32.15;;
11427;SDS011;5770;44.504;11.346;2023-02-24T04:41:55;45.85;;;31.45;;
11427;SDS011;5770;44.504;11.346;2023-02-24T04:44:23;40.15;;;31.15;;
11427;SDS011;5770;44.504;11.346;2023-02-24T04:46:52;42.50;;;31.45;;
11427;SDS011;5770;44.504;11.346;2023-02-24T04:49:20;44.13;;;32.90;;
11427;SDS011;5770;44.504;11.346;2023-02-24T04:51:47;42.03;;;31.50;;
11427;SDS011;5770;44.504;11.346;2023-02-24T04:54:16;46.15;;;32.10;;
11427;SDS011;5770;44.504;11.346;2023-02-24T04:56:45;44.15;;;31.50;;
11427;SDS011;5770;44.504;11.346;2023-02-24T04:59:14;44.65;;;31.77;;
11427;SDS011;5770;44.504;11.346;2023-02-24T05:01:42;41.67;;;31.58;;
11427;SDS011;5770;44.504;11.346;2023-02-24T05:04:25;47.22;;;31.55;;
11427;SDS011;5770;44.504;11.346;2023-02-24T05:06:54;45.08;;;33.28;;
11427;SDS011;5770;44.504;11.346;2023-02-24T05:09:22;40.58;;;30.77;;
11427;SDS011;5770;44.504;11.346;2023-02-24T05:11:55;46.58;;;31.75;;
11427;SDS011;5770;44.504;11.346;2023-02-24T05:14:23;46.92;;;31.45;;
11427;SDS011;5770;44.504;11.346;2023-02-24T05:16:50;42.30;;;31.45;;
11427;SDS011;5770;44.504;11.346;2023-02-24T05:19:23;40.13;;;30.80;;
11427;SDS011;5770;44.504;11.346;2023-02-24T05:22:08;44.33;;;31.15;;
11427;SDS011;5770;44.504;11.346;2023-02-24T05:24:35;39.75;;;30.83;;
11427;SDS011;5770;44.504;11.346;2023-02-24T05:27:04;41.08;;;30.70;;
11427;SDS011;5770;44.504;11.346;2023-02-24T05:29:32;38.03;;;31.15;;
11427;SDS011;5770;44.504;11.346;2023-02-24T05:32:00;42.58;;;32.10;;
11427;SDS011;5770;44.504;11.346;2023-02-24T05:34:29;40.30;;;30.02;;
11427;SDS011;5770;44.504;11.346;2023-02-24T05:36:58;41.58;;;31.20;;
11427;SDS011;5770;44.504;11.346;2023-02-24T05:39:28;43.47;;;31.17;;
11427;SDS011;5770;44.504;11.346;2023-02-24T05:41:55;41.53;;;32.38;;
11427;SDS011;5770;44.504;11.346;2023-02-24T05:44:24;41.65;;;31.92;;
11427;SDS011;5770;44.504;11.346;2023-02-24T05:46:52;41.58;;;30.92;;
11427;SDS011;5770;44.504;11.346;2023-02-24T05:49:23;39.70;;;31.20;;
11427;SDS011;5770;44.504;11.346;2023-02-24T05:51:53;41.42;;;31.42;;
11427;SDS011;5770;44.504;11.346;2023-02-24T05:54:21;46.75;;;31.48;;
11427;SDS011;5770;44.504;11.346;2023-02-24T05:56:50;40.70;;;32.00;;
11427;SDS011;5770;44.504;11.346;2023-02-24T05:59:17;41.92;;;32.30;;
11427;SDS011;5770;44.504;11.346;2023-02-24T06:01:47;42.42;;;30.23;;
11427;SDS011;5770;44.504;11.346;2023-02-24T06:04:17;41.75;;;32.83;;
11427;SDS011;5770;44.504;11.346;2023-02-24T06:07:03;46.08;;;31.98;;
11427;SDS011;5770;44.504;11.346;2023-02-24T06:09:31;42.90;;;31.35;;
11427;SDS011;5770;44.504;11.346;2023-02-24T06:11:58;44.80;;;31.92;;
11427;SDS011;5770;44.504;11.346;2023-02-24T06:14:26;41.83;;;32.05;;
11427;SDS011;5770;44.504;11.346;2023-02-24T06:16:55;50.03;;;33.15;;
11427;SDS011;5770;44.504;11.346;2023-02-24T06:19:24;46.92;;;32.20;;
11427;SDS011;5770;44.504;11.346;2023-02-24T06:21:51;42.35;;;32.20;;
11427;SDS011;5770;44.504;11.346;2023-02-24T06:24:18;61.22;;;32.60;;
11427;SDS011;5770;44.504;11.346;2023-02-24T06:26:46;49.00;;;33.33;;
11427;SDS011;5770;44.504;11.346;2023-02-24T06:29:14;57.38;;;32.53;;
11427;SDS011;5770;44.504;11.346;2023-02-24T06:31:43;46.10;;;32.67;;
11427;SDS011;5770;44.504;11.346;2023-02-24T06:34:13;48.35;;;32.45;;
11427;SDS011;5770;44.504;11.346;2023-02-24T06:36:42;53.30;;;33.47;;
11427;SDS011;5770;44.504;11.346;2023-02-24T06:39:11;48.28;;;32.78;;
11427;SDS011;5770;44.504;11.346;2023-02-24T06:41:38;47.78;;;32.92;;
11427;SDS011;5770;44.504;11.346;2023-02-24T06:44:06;51.30;;;34.45;;
11427;SDS011;5770;44.504;11.346;2023-02-24T06:46:34;48.65;;;33.42;;
11427;SDS011;5770;44.504;11.346;2023-02-24T06:49:01;47.47;;;32.78;;
11427;SDS011;5770;44.504;11.346;2023-02-24T06:51:30;50.53;;;32.72;;
11427;SDS011;5770;44.504;11.346;2023-02-24T06:53:58;52.08;;;32.35;;
11427;SDS011;5770;44.504;11.346;2023-02-24T06:56:26;47.50;;;33.45;;
11427;SDS011;5770;44.504;11.346;2023-02-24T06:58:54;48.03;;;32.78;;
11427;SDS011;5770;44.504;11.346;2023-02-24T07:01:24;48.53;;;33.17;;
11427;SDS011;5770;44.504;11.346;2023-02-24T07:03:53;48.85;;;32.50;;
11427;SDS011;5770;44.504;11.346;2023-02-24T07:06:40;48.58;;;33.67;;
11427;SDS011;5770;44.504;11.346;2023-02-24T07:09:08;43.30;;;32.15;;
11427;SDS011;5770;44.504;11.346;2023-02-24T07:11:37;45.42;;;33.08;;
11427;SDS011;5770;44.504;11.346;2023-02-24T07:14:07;46.58;;;31.55;;
11427;SDS011;5770;44.504;11.346;2023-02-24T07:16:38;46.65;;;33.65;;
11427;SDS011;5770;44.504;11.346;2023-02-24T07:19:09;41.05;;;32.78;;
11427;SDS011;5770;44.504;11.346;2023-02-24T07:21:38;48.35;;;34.95;;
11427;SDS011;5770;44.504;11.346;2023-02-24T07:24:11;45.25;;;34.25;;
11427;SDS011;5770;44.504;11.346;2023-02-24T07:26:44;61.60;;;36.55;;
11427;SDS011;5770;44.504;11.346;2023-02-24T07:29:15;50.90;;;33.35;;
11427;SDS011;5770;44.504;11.346;2023-02-24T07:31:46;49.95;;;34.85;;
11427;SDS011;5770;44.504;11.346;2023-02-24T07:34:15;51.92;;;33.30;;
11427;SDS011;5770;44.504;11.346;2023-02-24T07:36:49;48.88;;;34.00;;
11427;SDS011;5770;44.504;11.346;2023-02-24T07:39:17;56.03;;;34.30;;
11427;SDS011;5770;44.504;11.346;2023-02-24T07:41:44;50.72;;;34.53;;
11427;SDS011;5770;44.504;11.346;2023-02-24T07:44:13;48.47;;;34.22;;
11427;SDS011;5770;44.504;11.346;2023-02-24T07:46:41;48.53;;;31.75;;
11427;SDS011;5770;44.504;11.346;2023-02-24T07:49:09;50.65;;;34.17;;
11427;SDS011;5770;44.504;11.346;2023-02-24T07:51:39;50.28;;;32.88;;
11427;SDS011;5770;44.504;11.346;2023-02-24T07:54:08;53.70;;;34.30;;
11427;SDS011;5770;44.504;11.346;2023-02-24T07:56:39;54.38;;;34.70;;
11427;SDS011;5770;44.504;11.346;2023-02-24T07:59:12;51.33;;;34.22;;
11427;SDS011;5770;44.504;11.346;2023-02-24T08:01:46;54.92;;;34.03;;
11427;SDS011;5770;44.504;11.346;2023-02-24T08:04:20;48.83;;;33.45;;
11427;SDS011;5770;44.504;11.346;2023-02-24T08:06:49;49.20;;;33.97;;
11427;SDS011;5770;44.504;11.346;2023-02-24T08:09:22;50.83;;;33.83;;
11427;SDS011;5770;44.504;11.346;2023-02-24T08:12:08;55.78;;;34.63;;
11427;SDS011;5770;44.504;11.346;2023-02-24T08:14:42;55.47;;;33.10;;
11427;SDS011;5770;44.504;11.346;2023-02-24T08:17:14;48.58;;;32.05;;
11427;SDS011;5770;44.504;11.346;2023-02-24T08:19:44;64.93;;;33.42;;
11427;SDS011;5770;44.504;11.346;2023-02-24T08:22:11;53.63;;;32.90;;
11427;SDS011;5770;44.504;11.346;2023-02-24T08:24:46;52.90;;;32.45;;
11427;SDS011;5770;44.504;11.346;2023-02-24T08:27:15;47.05;;;31.73;;
11427;SDS011;5770;44.504;11.346;2023-02-24T08:29:47;43.78;;;32.53;;
11427;SDS011;5770;44.504;11.346;2023-02-24T08:32:24;52.88;;;35.17;;
11427;SDS011;5770;44.504;11.346;2023-02-24T08:34:57;52.33;;;36.08;;
11427;SDS011;5770;44.504;11.346;2023-02-24T08:37:27;58.08;;;36.75;;
11427;SDS011;5770;44.504;11.346;2023-02-24T08:39:59;50.47;;;35.50;;
11427;SDS011;5770;44.504;11.346;2023-02-24T08:42:29;50.40;;;36.75;;
11427;SDS011;5770;44.504;11.346;2023-02-24T08:44:59;58.33;;;37.83;;
11427;SDS011;5770;44.504;11.346;2023-02-24T08:47:26;56.28;;;37.13;;
11427;SDS011;5770;44.504;11.346;2023-02-24T08:49:55;50.65;;;34.92;;
11427;SDS011;5770;44.504;11.346;2023-02-24T08:52:24;52.75;;;35.30;;
11427;SDS011;5770;44.504;11.346;2023-02-24T08:54:52;41.80;;;32.80;;
11427;SDS011;5770;44.504;11.346;2023-02-24T08:57:25;44.78;;;31.00;;
11427;SDS011;5770;44.504;11.346;2023-02-24T08:59:52;53.25;;;32.08;;
11427;SDS011;5770;44.504;11.346;2023-02-24T09:02:23;46.17;;;32.42;;
11427;SDS011;5770;44.504;11.346;2023-02-24T09:04:54;50.97;;;33.15;;
11427;SDS011;5770;44.504;11.346;2023-02-24T09:07:23;45.03;;;32.47;;
11427;SDS011;5770;44.504;11.346;2023-02-24T09:09:52;45.05;;;34.75;;
11427;SDS011;5770;44.504;11.346;2023-02-24T09:12:21;50.80;;;32.63;;
11427;SDS011;5770;44.504;11.346;2023-02-24T09:14:51;44.85;;;32.38;;
11427;SDS011;5770;44.504;11.346;2023-02-24T09:17:21;42.00;;;32.67;;
11427;SDS011;5770;44.504;11.346;2023-02-24T09:20:04;44.67;;;32.35;;
11427;SDS011;5770;44.504;11.346;2023-02-24T09:23:10;51.00;;;32.10;;
11427;SDS011;5770;44.504;11.346;2023-02-24T09:25:44;42.05;;;31.35;;
11427;SDS011;5770;44.504;11.346;2023-02-24T09:28:15;40.80;;;31.73;;
11427;SDS011;5770;44.504;11.346;2023-02-24T09:30:45;46.17;;;32.78;;
11427;SDS011;5770;44.504;11.346;2023-02-24T09:33:18;54.05;;;32.92;;
11427;SDS011;5770;44.504;11.346;2023-02-24T09:35:53;46.08;;;32.55;;
11427;SDS011;5770;44.504;11.346;2023-02-24T09:38:44;42.42;;;31.15;;
11427;SDS011;5770;44.504;11.346;2023-02-24T09:41:31;44.20;;;31.92;;
11427;SDS011;5770;44.504;11.346;2023-02-24T09:44:19;42.95;;;29.55;;
11427;SDS011;5770;44.504;11.346;2023-02-24T09:46:51;43.65;;;31.67;;
11427;SDS011;5770;44.504;11.346;2023-02-24T09:49:23;44.28;;;31.05;;
11427;SDS011;5770;44.504;11.346;2023-02-24T09:52:04;39.45;;;31.55;;
11427;SDS011;5770;44.504;11.346;2023-02-24T09:54:41;41.83;;;32.40;;
11427;SDS011;5770;44.504;11.346;2023-02-24T09:57:43;39.17;;;30.90;;
11427;SDS011;5770;44.504;11.346;2023-02-24T10:00:49;41.83;;;31.30;;
11427;SDS011;5770;44.504;11.346;2023-02-24T10:03:22;45.35;;;33.65;;
11427;SDS011;5770;44.504;11.346;2023-02-24T10:06:10;45.47;;;33.60;;
11427;SDS011;5770;44.504;11.346;2023-02-24T10:08:39;43.78;;;32.13;;
11427;SDS011;5770;44.504;11.346;2023-02-24T10:11:11;48.00;;;34.05;;
11427;SDS011;5770;44.504;11.346;2023-02-24T10:13:41;46.92;;;33.53;;
11427;SDS011;5770;44.504;11.346;2023-02-24T10:16:10;47.92;;;34.25;;
11427;SDS011;5770;44.504;11.346;2023-02-24T10:18:42;45.90;;;33.15;;
11427;SDS011;5770;44.504;11.346;2023-02-24T10:21:16;41.92;;;31.08;;
11427;SDS011;5770;44.504;11.346;2023-02-24T10:23:50;42.05;;;33.17;;
11427;SDS011;5770;44.504;11.346;2023-02-24T10:26:22;43.45;;;33.65;;
11427;SDS011;5770;44.504;11.346;2023-02-24T10:28:57;43.10;;;32.80;;
11427;SDS011;5770;44.504;11.346;2023-02-24T10:31:28;46.58;;;33.90;;
11427;SDS011;5770;44.504;11.346;2023-02-24T10:34:03;45.22;;;33.88;;
11427;SDS011;5770;44.504;11.346;2023-02-24T10:36:31;49.25;;;32.78;;
11427;SDS011;5770;44.504;11.346;2023-02-24T10:39:00;47.58;;;32.38;;
11427;SDS011;5770;44.504;11.346;2023-02-24T10:41:39;48.30;;;32.03;;
11427;SDS011;5770;44.504;11.346;2023-02-24T10:44:10;45.17;;;31.88;;
11427;SDS011;5770;44.504;11.346;2023-02-24T10:46:40;50.28;;;32.20;;
11427;SDS011;5770;44.504;11.346;2023-02-24T10:49:10;42.83;;;30.60;;
11427;SDS011;5770;44.504;11.346;2023-02-24T10:51:41;44.85;;;31.88;;
11427;SDS011;5770;44.504;11.346;2023-02-24T10:54:11;45.95;;;30.65;;
11427;SDS011;5770;44.504;11.346;2023-02-24T10:56:58;39.30;;;30.00;;
11427;SDS011;5770;44.504;11.346;2023-02-24T10:59:46;46.10;;;30.50;;
11427;SDS011;5770;44.504;11.346;2023-02-24T11:02:34;44.17;;;30.55;;
11427;SDS011;5770;44.504;11.346;2023-02-24T11:05:22;51.45;;;32.53;;
11427;SDS011;5770;44.504;11.346;2023-02-24T11:08:06;47.72;;;32.83;;
11427;SDS011;5770;44.504;11.346;2023-02-24T11:10:37;47.05;;;32.28;;
11427;SDS011;5770;44.504;11.346;2023-02-24T11:13:17;43.20;;;32.38;;
11427;SDS011;5770;44.504;11.346;2023-02-24T11:16:02;47.78;;;32.65;;
11427;SDS011;5770;44.504;11.346;2023-02-24T11:18:50;51.58;;;33.50;;
11427;SDS011;5770;44.504;11.346;2023-02-24T11:21:21;44.75;;;32.90;;
11427;SDS011;5770;44.504;11.346;2023-02-24T11:23:50;50.63;;;35.13;;
11427;SDS011;5770;44.504;11.346;2023-02-24T11:26:20;51.88;;;35.85;;
11427;SDS011;5770;44.504;11.346;2023-02-24T11:28:59;52.83;;;35.40;;
11427;SDS011;5770;44.504;11.346;2023-02-24T11:31:38;53.85;;;36.95;;
11427;SDS011;5770;44.504;11.346;2023-02-24T11:34:15;51.22;;;35.92;;
11427;SDS011;5770;44.504;11.346;2023-02-24T11:36:48;50.88;;;34.70;;
11427;SDS011;5770;44.504;11.346;2023-02-24T11:39:29;55.28;;;37.97;;
11427;SDS011;5770;44.504;11.346;2023-02-24T11:42:08;52.83;;;37.22;;
11427;SDS011;5770;44.504;11.346;2023-02-24T11:44:41;53.00;;;35.58;;
11427;SDS011;5770;44.504;11.346;2023-02-24T11:47:12;51.90;;;36.60;;
11427;SDS011;5770;44.504;11.346;2023-02-24T11:49:42;58.78;;;37.42;;
11427;SDS011;5770;44.504;11.346;2023-02-24T11:52:14;58.50;;;36.75;;
11427;SDS011;5770;44.504;11.346;2023-02-24T11:54:44;51.72;;;36.42;;
11427;SDS011;5770;44.504;11.346;2023-02-24T11:57:15;51.95;;;36.63;;
11427;SDS011;5770;44.504;11.346;2023-02-24T11:59:47;49.42;;;34.40;;
11427;SDS011;5770;44.504;11.346;2023-02-24T12:02:21;52.72;;;35.38;;
11427;SDS011;5770;44.504;11.346;2023-02-24T12:04:55;54.22;;;36.50;;
11427;SDS011;5770;44.504;11.346;2023-02-24T12:07:27;60.15;;;38.90;;
11427;SDS011;5770;44.504;11.346;2023-02-24T12:09:59;57.33;;;38.72;;
11427;SDS011;5770;44.504;11.346;2023-02-24T12:12:34;52.97;;;36.22;;
11427;SDS011;5770;44.504;11.346;2023-02-24T12:15:04;57.33;;;39.83;;
11427;SDS011;5770;44.504;11.346;2023-02-24T12:17:37;62.33;;;42.85;;
11427;SDS011;5770;44.504;11.346;2023-02-24T12:20:14;63.58;;;41.58;;
11427;SDS011;5770;44.504;11.346;2023-02-24T12:22:48;61.50;;;40.85;;
11427;SDS011;5770;44.504;11.346;2023-02-24T12:25:16;57.97;;;40.50;;
11427;SDS011;5770;44.504;11.346;2023-02-24T12:27:52;61.97;;;43.15;;
11427;SDS011;5770;44.504;11.346;2023-02-24T12:36:13;63.13;;;43.90;;
11427;SDS011;5770;44.504;11.346;2023-02-24T12:38:48;60.95;;;43.13;;
11427;SDS011;5770;44.504;11.346;2023-02-24T12:41:26;65.43;;;42.95;;
11427;SDS011;5770;44.504;11.346;2023-02-24T12:44:01;57.55;;;38.17;;
11427;SDS011;5770;44.504;11.346;2023-02-24T12:46:35;51.60;;;36.33;;
11427;SDS011;5770;44.504;11.346;2023-02-24T12:49:10;56.70;;;37.55;;
11427;SDS011;5770;44.504;11.346;2023-02-24T12:51:52;51.38;;;36.25;;
11427;SDS011;5770;44.504;11.346;2023-02-24T12:54:23;58.13;;;37.95;;
11427;SDS011;5770;44.504;11.346;2023-02-24T12:56:55;54.65;;;38.05;;
11427;SDS011;5770;44.504;11.346;2023-02-24T12:59:30;50.22;;;37.90;;
11427;SDS011;5770;44.504;11.346;2023-02-24T13:02:04;52.15;;;36.38;;
11427;SDS011;5770;44.504;11.346;2023-02-24T13:04:35;50.15;;;35.90;;
11427;SDS011;5770;44.504;11.346;2023-02-24T13:07:05;54.30;;;34.58;;
11427;SDS011;5770;44.504;11.346;2023-02-24T13:09:39;48.78;;;33.83;;
11427;SDS011;5770;44.504;11.346;2023-02-24T13:12:14;49.95;;;33.53;;
11427;SDS011;5770;44.504;11.346;2023-02-24T13:14:44;42.10;;;31.02;;
11427;SDS011;5770;44.504;11.346;2023-02-24T13:17:16;45.05;;;31.88;;
11427;SDS011;5770;44.504;11.346;2023-02-24T13:19:45;48.65;;;32.90;;
11427;SDS011;5770;44.504;11.346;2023-02-24T13:22:20;42.38;;;30.60;;
11427;SDS011;5770;44.504;11.346;2023-02-24T13:25:11;42.60;;;29.75;;
11427;SDS011;5770;44.504;11.346;2023-02-24T13:27:52;47.05;;;35.28;;
11427;SDS011;5770;44.504;11.346;2023-02-24T13:30:34;48.38;;;34.83;;
11427;SDS011;5770;44.504;11.346;2023-02-24T13:33:05;57.03;;;36.58;;
11427;SDS011;5770;44.504;11.346;2023-02-24T13:35:47;52.63;;;35.90;;
11427;SDS011;5770;44.504;11.346;2023-02-24T13:38:21;51.58;;;36.35;;
11427;SDS011;5770;44.504;11.346;2023-02-24T13:40:50;52.20;;;37.55;;
11427;SDS011;5770;44.504;11.346;2023-02-24T13:43:21;53.58;;;37.22;;
11427;SDS011;5770;44.504;11.346;2023-02-24T13:45:52;54.42;;;36.88;;
11427;SDS011;5770;44.504;11.346;2023-02-24T13:54:22;52.88;;;36.53;;
11427;SDS011;5770;44.504;11.346;2023-02-24T13:57:17;50.90;;;34.97;;
11427;SDS011;5770;44.504;11.346;2023-02-24T14:00:03;49.72;;;32.83;;
11427;SDS011;5770;44.504;11.346;2023-02-24T14:02:36;46.88;;;33.60;;
11427;SDS011;5770;44.504;11.346;2023-02-24T14:05:07;45.55;;;33.35;;
11427;SDS011;5770;44.504;11.346;2023-02-24T14:07:36;52.22;;;33.10;;
11427;SDS011;5770;44.504;11.346;2023-02-24T14:10:04;43.85;;;31.63;;
11427;SDS011;5770;44.504;11.346;2023-02-24T14:12:44;44.45;;;31.67;;
11427;SDS011;5770;44.504;11.346;2023-02-24T14:15:12;44.00;;;31.50;;
11427;SDS011;5770;44.504;11.346;2023-02-24T14:17:53;48.60;;;30.80;;
11427;SDS011;5770;44.504;11.346;2023-02-24T14:20:22;41.47;;;30.95;;
11427;SDS011;5770;44.504;11.346;2023-02-24T14:22:51;41.30;;;30.38;;
11427;SDS011;5770;44.504;11.346;2023-02-24T14:25:19;38.40;;;29.10;;
11427;SDS011;5770;44.504;11.346;2023-02-24T14:27:48;41.78;;;28.40;;
11427;SDS011;5770;44.504;11.346;2023-02-24T14:30:27;37.85;;;28.00;;
11427;SDS011;5770;44.504;11.346;2023-02-24T14:32:58;43.17;;;30.20;;
11427;SDS011;5770;44.504;11.346;2023-02-24T14:35:27;43.03;;;29.55;;
11427;SDS011;5770;44.504;11.346;2023-02-24T14:37:58;38.78;;;28.85;;
11427;SDS011;5770;44.504;11.346;2023-02-24T14:40:25;38.95;;;28.52;;
11427;SDS011;5770;44.504;11.346;2023-02-24T14:42:53;44.13;;;32.08;;
11427;SDS011;5770;44.504;11.346;2023-02-24T14:45:23;46.80;;;32.00;;
11427;SDS011;5770;44.504;11.346;2023-02-24T14:47:52;47.83;;;32.22;;
11427;SDS011;5770;44.504;11.346;2023-02-24T14:50:21;42.70;;;30.15;;
11427;SDS011;5770;44.504;11.346;2023-02-24T14:52:54;42.10;;;31.25;;
11427;SDS011;5770;44.504;11.346;2023-02-24T14:55:23;40.03;;;30.90;;
11427;SDS011;5770;44.504;11.346;2023-02-24T14:57:56;41.05;;;29.55;;
11427;SDS011;5770;44.504;11.346;2023-02-24T15:00:26;38.92;;;30.65;;
11427;SDS011;5770;44.504;11.346;2023-02-24T15:02:57;37.85;;;30.33;;